Aeroporto :
LOGIN :

Iscrizione | Disclaimer

   EN    FR    IT 

 










Sommario :    VFR   VFR Marginale   IFR   IFR Intensivo   IFR Molto Intensivo
Visibilità : 
Base nubi : 
>= 8 km
>= 3000ft
5 / 8 km
1000 / 3000 ft
1500m / 5 km
500 / 1000 ft
800 / 1500m
200 / 500 ft
< 800m
< 200 ft
Simboli :   Temporali  Nebbia  Neve Forte  Precipitazioni Forti  Vento > 20 kt
SIGMETs :   Varie  Temporali  Ghiacco  Turbolenza  Onda orograficha  Ceneri Vulcaniche






- Altitudine del aeroporto : 154 ft
- Codice IATA : SZZ


EPSC - Szczecin Goleniow

ULTIMO METAR :
  • 280030Z 27002KT 5000 BR NSC M01/M01 Q1002

METARs OBSOLETI :
  • 280000Z VRB01KT 4000 BR FEW037 M01/M01 Q1002
  • 272330Z VRB01KT 3200 BR SCT033 BKN045 M01/M01 Q1001
  • 272300Z 18001KT 0900 R31/2000N FZFG BKN033 M01/M01 Q1001
  • 272230Z VRB01KT 0600 R31/1600D FZFG NSC M00/M01 Q1000
  • 272200Z VRB01KT 2000 R31/1900N BR NSC M00/M01 Q1000

TAF TAF EPSC
Valido dal 28 a 00 ore il 29 a 00 ore UTC


272330Z 2800/2824 VRB03KT 3000 BR BKN040
TEMPO 2800/2807 0600 FZFG BKN003
PROB40 2800/2806 0300 FZFG OVC001
BECMG 2802/2805 27010KT
BECMG 2806/2809 8000 BKN005
BECMG 2809/2811 SCT020
TEMPO 2812/2818 28016G26KT 2000 SHSNRA BKN005 BKN010CB



MetMap, La meteo Aeronautica in un colpo d'occhio ! - Copyright ORBIFLY Dicembre 2007 - Disclaimer

ORBIFLY MET'MAP TEAM :

Programmazione e sviluppo : Alexandra Zaïnal
Concezione : Baudouin d'Aumeries
Aiuto per la programmazione : Marc-Olivier Méhu
Supporto tecnico e logistico : Manuel Goepfert
Aiuto per la traduzione : Arnaldo La Scala

Contatto : metmap@orbifly.com




FONTI E CREDITI :

   NOAA